createdAt,value
2024-03-12T00:00:33.332Z,16.95
2024-03-12T00:03:37.571Z,17.08
2024-03-12T00:06:43.353Z,18.13
2024-03-12T00:09:47.216Z,19.67
2024-03-12T00:12:53.355Z,19.23
2024-03-12T00:15:57.625Z,17.77
2024-03-12T00:19:01.704Z,17.75
2024-03-12T00:22:09.112Z,17.67
2024-03-12T00:25:12.746Z,17.50
2024-03-12T00:28:16.606Z,15.98
2024-03-12T00:31:20.387Z,16.75
2024-03-12T00:34:24.040Z,18.35
2024-03-12T00:37:29.355Z,18.65
2024-03-12T00:40:35.596Z,18.92
2024-03-12T00:43:39.554Z,18.20
2024-03-12T00:46:43.367Z,18.45
2024-03-12T00:49:47.075Z,17.98
2024-03-12T00:52:54.210Z,18.15
2024-03-12T00:55:59.428Z,17.97
2024-03-12T00:59:03.032Z,17.20
2024-03-12T01:02:06.643Z,17.88
2024-03-12T01:05:11.160Z,18.00
2024-03-12T01:08:16.258Z,17.48
2024-03-12T01:11:19.851Z,17.20
2024-03-12T01:14:23.936Z,17.60
2024-03-12T01:17:27.550Z,16.80
2024-03-12T01:20:35.160Z,16.77
2024-03-12T01:23:41.933Z,15.48
2024-03-12T01:26:45.798Z,16.00
2024-03-12T01:29:49.389Z,16.17
2024-03-12T01:32:54.084Z,16.08
2024-03-12T01:36:06.846Z,15.15
2024-03-12T01:39:17.307Z,15.32
2024-03-12T01:42:22.737Z,16.77
2024-03-12T01:45:27.385Z,15.75
2024-03-12T01:48:32.821Z,16.00
2024-03-12T01:51:37.920Z,15.93
2024-03-12T01:54:45.027Z,16.33
2024-03-12T01:57:49.631Z,16.50
2024-03-12T02:00:53.322Z,17.17
2024-03-12T02:03:57.539Z,17.45
2024-03-12T02:07:01.227Z,16.45
2024-03-12T02:10:07.520Z,18.08
2024-03-12T02:13:11.208Z,16.10
2024-03-12T02:16:14.873Z,15.23
2024-03-12T02:19:19.450Z,16.67
2024-03-12T02:22:22.796Z,15.27
2024-03-12T02:25:27.759Z,16.50
2024-03-12T02:28:31.227Z,15.70
2024-03-12T02:31:35.135Z,16.20
2024-03-12T02:34:39.531Z,15.52
2024-03-12T02:37:43.674Z,16.00
2024-03-12T02:40:48.814Z,15.70
2024-03-12T02:43:53.117Z,15.82
2024-03-12T02:46:56.802Z,15.93
2024-03-12T02:50:00.643Z,15.82
2024-03-12T02:53:05.171Z,16.38
2024-03-12T02:56:10.596Z,16.20
2024-03-12T02:59:14.325Z,16.65
2024-03-12T03:02:18.007Z,16.95
2024-03-12T03:05:21.393Z,15.70
2024-03-12T03:08:24.907Z,15.57
2024-03-12T03:11:30.390Z,15.93
2024-03-12T03:14:34.067Z,16.00
2024-03-12T03:17:37.839Z,16.77
2024-03-12T03:20:41.547Z,15.23
2024-03-12T03:23:45.117Z,15.55
2024-03-12T03:26:52.266Z,15.60
2024-03-12T03:29:57.999Z,16.08
2024-03-12T03:33:01.689Z,16.60
2024-03-12T03:36:05.804Z,15.52
2024-03-12T03:39:09.781Z,17.15
2024-03-12T03:42:14.923Z,16.48
2024-03-12T03:45:19.116Z,15.90
2024-03-12T03:48:22.863Z,16.13
2024-03-12T03:51:27.081Z,16.30
2024-03-12T03:54:30.562Z,15.35
2024-03-12T03:57:35.842Z,17.30
2024-03-12T04:00:40.910Z,16.75
2024-03-12T04:03:44.604Z,15.93
2024-03-12T04:06:51.921Z,15.40
2024-03-12T04:09:57.400Z,16.08
2024-03-12T04:13:02.729Z,15.43
2024-03-12T04:16:07.251Z,16.67
2024-03-12T04:19:11.133Z,17.05
2024-03-12T04:22:14.828Z,16.02
2024-03-12T04:25:18.799Z,16.20
2024-03-12T04:28:24.083Z,16.60
2024-03-12T04:34:24.804Z,15.40
2024-03-12T04:37:32.884Z,15.93
2024-03-12T04:40:36.913Z,16.33
2024-03-12T04:43:43.064Z,15.63
2024-03-12T04:46:46.782Z,16.00
2024-03-12T04:49:52.702Z,15.13
2024-03-12T04:52:56.314Z,14.52
2024-03-12T04:56:00.029Z,14.93
2024-03-12T04:59:03.727Z,15.63
2024-03-12T05:02:07.436Z,14.75
2024-03-12T05:05:14.936Z,15.70
2024-03-12T05:08:19.599Z,15.75
2024-03-12T05:11:23.056Z,16.60
2024-03-12T05:14:26.620Z,15.48
2024-03-12T05:17:30.344Z,16.58
2024-03-12T05:20:37.388Z,16.05
2024-03-12T05:23:41.025Z,15.85
2024-03-12T05:26:46.055Z,14.75
2024-03-12T05:29:53.799Z,17.50
2024-03-12T05:32:57.583Z,16.13
2024-03-12T05:36:10.436Z,16.77
2024-03-12T05:39:20.178Z,16.38
2024-03-12T05:42:41.438Z,15.82
2024-03-12T05:46:03.076Z,16.33
2024-03-12T05:49:10.254Z,16.60
2024-03-12T05:52:17.164Z,16.33
2024-03-12T05:55:20.601Z,16.58
2024-03-12T05:58:24.352Z,16.58
2024-03-12T06:01:29.376Z,17.17
2024-03-12T06:04:34.027Z,17.42
2024-03-12T06:07:39.144Z,17.27
2024-03-12T06:10:42.795Z,17.17
2024-03-12T06:13:46.598Z,15.82
2024-03-12T06:22:04.734Z,15.52
2024-03-12T06:38:36.661Z,15.10
2024-03-12T06:41:42.511Z,14.30
2024-03-12T06:44:50.782Z,13.95
2024-03-12T06:47:56.761Z,14.50
2024-03-12T06:51:01.540Z,14.15
2024-03-12T06:54:08.308Z,14.73
2024-03-12T06:57:14.603Z,15.93
2024-03-12T07:00:27.729Z,16.40
2024-03-12T07:03:32.660Z,14.95
2024-03-12T07:06:36.902Z,16.10
2024-03-12T07:09:42.703Z,16.42
2024-03-12T07:12:47.298Z,17.08
2024-03-12T07:15:51.037Z,17.70
2024-03-12T07:18:56.638Z,19.50
2024-03-12T07:22:00.810Z,17.77
2024-03-12T07:25:07.174Z,19.33
2024-03-12T07:28:11.528Z,18.10
2024-03-12T07:31:17.088Z,17.08
2024-03-12T07:34:21.757Z,15.50
2024-03-12T07:37:25.639Z,14.23
2024-03-12T07:40:30.998Z,14.07
2024-03-12T07:43:34.965Z,13.13
2024-03-12T07:46:38.711Z,13.32
2024-03-12T07:49:43.071Z,13.68
2024-03-12T07:52:47.333Z,13.10
2024-03-12T07:55:54.398Z,14.40
2024-03-12T07:58:58.369Z,23.07
2024-03-12T08:02:05.206Z,18.13
2024-03-12T08:05:09.593Z,12.05
2024-03-12T08:08:13.357Z,11.93
2024-03-12T08:11:20.251Z,10.10
2024-03-12T08:14:23.959Z,12.23
2024-03-12T08:17:29.607Z,12.55
2024-03-12T08:20:33.532Z,11.52
2024-03-12T08:23:37.543Z,12.48
2024-03-12T08:26:43.999Z,12.35
2024-03-12T08:29:47.739Z,12.57
2024-03-12T08:32:51.674Z,12.27
2024-03-12T08:35:55.876Z,12.10
2024-03-12T08:39:00.149Z,10.60
2024-03-12T08:42:09.936Z,10.73
2024-03-12T08:45:15.414Z,10.45
2024-03-12T08:48:19.554Z,10.95
2024-03-12T08:51:24.936Z,11.45
2024-03-12T08:54:28.965Z,11.65
2024-03-12T08:57:34.137Z,11.35
2024-03-12T09:00:38.918Z,11.00
2024-03-12T09:03:46.555Z,9.98
2024-03-12T09:06:53.509Z,10.25
2024-03-12T09:09:59.811Z,10.50
2024-03-12T09:13:05.662Z,9.57
2024-03-12T09:16:11.676Z,10.90
2024-03-12T09:19:16.413Z,11.15
2024-03-12T09:22:20.228Z,11.60
2024-03-12T09:25:24.491Z,10.07
2024-03-12T09:28:29.755Z,10.63
2024-03-12T09:31:35.154Z,11.48
2024-03-12T09:34:43.468Z,11.10
2024-03-12T09:37:47.507Z,10.93
2024-03-12T09:40:54.200Z,11.48
2024-03-12T09:43:59.793Z,11.55
2024-03-12T09:47:04.672Z,10.75
2024-03-12T09:50:14.218Z,10.57
2024-03-12T09:53:21.078Z,11.93
2024-03-12T09:56:26.561Z,12.00
2024-03-12T09:59:52.775Z,11.75
2024-03-12T10:03:06.765Z,11.05
2024-03-12T10:06:11.286Z,11.77
2024-03-12T10:09:18.314Z,11.32
2024-03-12T10:12:22.970Z,11.50
2024-03-12T10:15:28.290Z,10.82
2024-03-12T10:18:34.498Z,9.60
2024-03-12T10:21:38.655Z,8.98
2024-03-12T10:24:42.454Z,11.60
2024-03-12T10:28:03.772Z,8.50
2024-03-12T10:34:31.045Z,10.77
2024-03-12T10:37:36.205Z,11.55
2024-03-12T10:40:40.531Z,8.32
2024-03-12T10:43:46.941Z,8.52
2024-03-12T10:46:51.446Z,9.38
2024-03-12T10:49:57.360Z,8.55
2024-03-12T10:53:02.327Z,9.02
2024-03-12T10:56:12.668Z,9.40
2024-03-12T10:59:20.683Z,8.88
2024-03-12T11:02:24.390Z,8.95
2024-03-12T11:05:33.909Z,8.43
2024-03-12T11:08:38.201Z,9.63
2024-03-12T11:11:42.331Z,10.15
2024-03-12T11:14:46.529Z,9.05
2024-03-12T11:17:51.593Z,9.18
2024-03-12T11:20:57.149Z,9.35
2024-03-12T11:24:01.123Z,9.60
2024-03-12T11:27:05.339Z,10.32
2024-03-12T11:30:20.673Z,10.88
2024-03-12T11:34:04.510Z,10.90
2024-03-12T11:37:39.723Z,11.75
2024-03-12T11:41:12.081Z,11.75
2024-03-12T11:50:31.231Z,11.05
2024-03-12T12:05:41.272Z,10.02
2024-03-12T12:08:53.592Z,11.57
2024-03-12T12:12:05.114Z,12.80
2024-03-12T12:15:12.486Z,11.90
2024-03-12T12:18:16.413Z,12.15
2024-03-12T12:21:22.861Z,12.68
2024-03-12T12:24:27.987Z,13.52
2024-03-12T12:27:33.451Z,12.38
2024-03-12T12:30:40.027Z,11.60
2024-03-12T12:34:30.349Z,13.48
2024-03-12T12:38:31.076Z,11.18
2024-03-12T12:41:39.983Z,11.45
2024-03-12T12:44:43.914Z,11.35
2024-03-12T12:47:50.109Z,10.30
2024-03-12T12:50:55.817Z,9.88
2024-03-12T12:54:03.369Z,11.13
2024-03-12T12:57:11.786Z,11.30
2024-03-12T13:00:22.397Z,11.15
2024-03-12T13:03:26.289Z,11.80
2024-03-12T13:06:30.558Z,11.82
2024-03-12T13:09:38.102Z,11.38
2024-03-12T13:12:44.041Z,11.63
2024-03-12T13:15:48.059Z,11.52
2024-03-12T13:18:53.072Z,9.32
2024-03-12T13:22:00.510Z,10.07
2024-03-12T13:25:06.355Z,10.32
2024-03-12T13:28:11.781Z,10.02
2024-03-12T13:31:16.482Z,10.40
2024-03-12T13:34:20.776Z,11.27
2024-03-12T13:37:24.568Z,10.35
2024-03-12T13:40:28.857Z,10.75
2024-03-12T13:43:33.856Z,10.70
2024-03-12T13:46:42.211Z,11.80
2024-03-12T13:49:49.116Z,11.00
2024-03-12T13:52:53.201Z,11.55
2024-03-12T13:55:57.333Z,10.90
2024-03-12T13:59:02.988Z,11.85
2024-03-12T14:02:08.307Z,11.63
2024-03-12T14:05:13.658Z,12.43
2024-03-12T14:08:18.674Z,10.70
2024-03-12T14:11:22.600Z,13.30
2024-03-12T14:14:29.187Z,13.07
2024-03-12T14:17:32.939Z,13.45
2024-03-12T14:20:37.968Z,14.98
2024-03-12T14:23:41.704Z,11.80
2024-03-12T14:26:45.494Z,11.93
2024-03-12T14:29:50.488Z,12.20
2024-03-12T14:33:57.653Z,12.10
2024-03-12T14:38:07.961Z,13.35
2024-03-12T14:41:34.630Z,12.48
2024-03-12T14:49:38.765Z,13.30
2024-03-12T14:52:43.209Z,12.27
2024-03-12T14:55:46.923Z,12.25
2024-03-12T14:58:50.535Z,12.50
2024-03-12T15:01:55.569Z,13.18
2024-03-12T15:05:00.197Z,13.80
2024-03-12T15:08:05.475Z,13.65
2024-03-12T15:11:09.676Z,13.82
2024-03-12T15:14:14.827Z,14.63
2024-03-12T15:17:21.413Z,14.27
2024-03-12T15:20:25.323Z,15.05
2024-03-12T15:23:29.897Z,14.02
2024-03-12T15:26:34.987Z,14.43
2024-03-12T15:29:38.731Z,15.20
2024-03-12T15:32:43.763Z,15.10
2024-03-12T15:35:47.592Z,15.27
2024-03-12T15:38:51.920Z,16.42
2024-03-12T15:41:56.713Z,14.23
2024-03-12T15:45:00.574Z,15.18
2024-03-12T15:48:08.751Z,14.88
2024-03-12T15:51:13.667Z,15.70
2024-03-12T15:54:17.502Z,14.50
2024-03-12T15:57:22.224Z,16.00
2024-03-12T16:00:25.570Z,15.55
2024-03-12T16:03:30.539Z,14.65
2024-03-12T16:06:35.153Z,15.40
2024-03-12T16:09:39.368Z,15.80
2024-03-12T16:12:46.119Z,15.50
2024-03-12T16:15:51.073Z,16.30
2024-03-12T16:18:56.651Z,16.83
2024-03-12T16:22:01.347Z,16.90
2024-03-12T16:25:06.883Z,18.17
2024-03-12T16:28:10.997Z,17.95
2024-03-12T16:34:26.877Z,18.40
2024-03-12T16:37:30.675Z,19.48
2024-03-12T16:40:34.493Z,19.17
2024-03-12T16:43:38.141Z,18.88
2024-03-12T16:46:41.901Z,19.23
2024-03-12T16:49:48.177Z,19.13
2024-03-12T16:52:51.806Z,19.38
2024-03-12T16:55:55.626Z,20.08
2024-03-12T16:58:59.517Z,20.92
2024-03-12T17:02:09.176Z,20.58
2024-03-12T17:05:17.526Z,21.25
2024-03-12T17:08:21.278Z,21.20
2024-03-12T17:11:25.443Z,21.75
2024-03-12T17:14:34.647Z,22.48
2024-03-12T17:17:40.965Z,25.45
2024-03-12T17:20:47.720Z,22.95
2024-03-12T17:23:51.998Z,23.27
2024-03-12T17:26:56.038Z,21.25
2024-03-12T17:30:00.368Z,21.65
2024-03-12T17:33:06.740Z,23.08
2024-03-12T17:36:18.543Z,27.00
2024-03-12T17:39:23.254Z,24.70
2024-03-12T17:42:27.389Z,24.50
2024-03-12T17:45:32.693Z,23.00
2024-03-12T17:48:41.243Z,18.85
2024-03-12T17:51:47.275Z,19.85
2024-03-12T17:54:51.682Z,18.40
2024-03-12T17:57:56.340Z,17.95
2024-03-12T18:01:00.617Z,17.02
2024-03-12T18:04:04.898Z,17.08
2024-03-12T18:07:22.411Z,16.55
2024-03-12T18:10:28.377Z,16.10
2024-03-12T18:13:32.606Z,15.98
2024-03-12T18:16:38.399Z,15.10
2024-03-12T18:19:42.590Z,16.33
2024-03-12T18:22:48.913Z,16.67
2024-03-12T18:25:52.768Z,16.30
2024-03-12T18:28:57.818Z,17.65
2024-03-12T18:32:02.887Z,18.00
2024-03-12T18:35:08.887Z,19.58
2024-03-12T18:38:13.859Z,20.38
2024-03-12T18:41:17.494Z,20.42
2024-03-12T18:44:22.920Z,18.92
2024-03-12T18:47:27.285Z,17.05
2024-03-12T18:50:31.932Z,18.73
2024-03-12T18:53:38.179Z,19.67
2024-03-12T18:56:43.589Z,22.52
2024-03-12T18:59:47.615Z,21.23
2024-03-12T19:02:53.350Z,20.13
2024-03-12T19:05:58.601Z,20.15
2024-03-12T19:09:04.269Z,19.15
2024-03-12T19:12:11.745Z,20.65
2024-03-12T19:15:21.666Z,21.95
2024-03-12T19:18:25.986Z,22.00
2024-03-12T19:21:30.493Z,20.67
2024-03-12T19:24:35.742Z,21.02
2024-03-12T19:27:40.066Z,21.73
2024-03-12T19:30:44.362Z,23.10
2024-03-12T19:33:48.244Z,22.77
2024-03-12T19:36:52.446Z,23.67
2024-03-12T19:40:00.371Z,22.67
2024-03-12T19:43:04.711Z,22.83
2024-03-12T19:46:09.012Z,25.10
2024-03-12T19:49:14.724Z,23.88
2024-03-12T19:52:19.672Z,24.92
2024-03-12T19:55:26.876Z,25.50
2024-03-12T19:58:31.893Z,26.15
2024-03-12T20:01:35.682Z,27.05
2024-03-12T20:04:39.419Z,27.02
2024-03-12T20:07:43.624Z,27.90
2024-03-12T20:10:48.587Z,26.70
2024-03-12T20:13:52.912Z,28.23
2024-03-12T20:16:57.239Z,27.98
2024-03-12T20:20:00.879Z,28.33
2024-03-12T20:23:06.906Z,28.95
2024-03-12T20:26:11.958Z,26.90
2024-03-12T20:29:15.577Z,28.00
2024-03-12T20:32:20.545Z,27.55
2024-03-12T20:35:24.474Z,29.88
2024-03-12T20:38:29.927Z,29.42
2024-03-12T20:41:36.490Z,26.60
2024-03-12T20:44:41.278Z,32.22
2024-03-12T20:47:46.538Z,30.85
2024-03-12T20:50:50.639Z,30.95
2024-03-12T20:53:54.951Z,31.85
2024-03-12T20:57:00.007Z,28.10
2024-03-12T21:00:17.402Z,31.50
2024-03-12T21:03:21.087Z,34.15
2024-03-12T21:06:25.549Z,36.53
2024-03-12T21:09:29.137Z,31.13
2024-03-12T21:12:34.859Z,35.17
2024-03-12T21:15:38.351Z,30.23
2024-03-12T21:18:43.397Z,29.05
2024-03-12T21:21:50.676Z,31.30
2024-03-12T21:24:58.241Z,34.53
2024-03-12T21:28:04.177Z,32.45
2024-03-12T21:31:07.868Z,32.90
2024-03-12T21:34:12.794Z,32.08
2024-03-12T21:37:17.030Z,30.48
2024-03-12T21:40:20.718Z,32.13
2024-03-12T21:43:25.866Z,33.47
2024-03-12T21:46:29.746Z,33.35
2024-03-12T21:49:33.371Z,32.17
2024-03-12T21:52:37.521Z,34.35
2024-03-12T21:55:41.389Z,30.65
2024-03-12T21:58:48.536Z,29.05
2024-03-12T22:01:52.176Z,30.55
2024-03-12T22:04:55.859Z,36.05
2024-03-12T22:07:59.493Z,32.05
2024-03-12T22:11:04.528Z,32.50
2024-03-12T22:14:12.191Z,35.80
2024-03-12T22:17:16.618Z,34.03
2024-03-12T22:20:21.031Z,32.35
2024-03-12T22:23:28.930Z,33.75
2024-03-12T22:26:32.647Z,33.70
2024-03-12T22:29:39.858Z,33.60
2024-03-12T22:34:25.449Z,31.35
2024-03-12T22:37:29.692Z,31.20
2024-03-12T22:40:33.470Z,30.77
2024-03-12T22:43:38.576Z,31.05
2024-03-12T22:46:43.747Z,32.13
2024-03-12T22:49:49.556Z,32.33
2024-03-12T22:52:55.559Z,30.13
2024-03-12T22:55:59.516Z,32.72
2024-03-12T22:59:03.873Z,32.58
2024-03-12T23:02:10.444Z,33.28
2024-03-12T23:05:17.170Z,31.45
2024-03-12T23:08:21.898Z,31.42
2024-03-12T23:11:28.264Z,30.70
2024-03-12T23:14:31.896Z,30.52
2024-03-12T23:17:37.441Z,30.45
2024-03-12T23:20:45.754Z,30.92
2024-03-12T23:23:49.411Z,31.75
2024-03-12T23:26:55.963Z,30.00
2024-03-12T23:30:01.154Z,30.15
2024-03-12T23:33:09.012Z,26.80
2024-03-12T23:36:18.094Z,29.75
2024-03-12T23:39:24.677Z,31.63
2024-03-12T23:42:28.243Z,29.65
2024-03-12T23:45:32.559Z,31.60
2024-03-12T23:48:36.096Z,32.33
2024-03-12T23:51:40.892Z,30.80
2024-03-12T23:54:44.851Z,30.60
2024-03-12T23:57:49.599Z,31.23
